createdAt,value
2022-12-12T00:00:10.631Z,48.75
2022-12-12T00:02:39.832Z,48.58
2022-12-12T00:05:10.071Z,42.15
2022-12-12T00:07:38.580Z,39.90
2022-12-12T00:10:07.577Z,40.30
2022-12-12T00:12:35.814Z,39.58
2022-12-12T00:15:06.539Z,39.63
2022-12-12T00:17:34.763Z,44.60
2022-12-12T00:20:03.173Z,42.72
2022-12-12T00:22:31.361Z,43.15
2022-12-12T00:24:59.511Z,50.67
2022-12-12T00:27:27.673Z,43.33
2022-12-12T00:29:56.204Z,43.55
2022-12-12T00:32:25.797Z,44.85
2022-12-12T00:34:53.924Z,50.05
2022-12-12T00:37:22.068Z,48.83
2022-12-12T00:39:50.653Z,51.35
2022-12-12T00:42:18.815Z,46.88
2022-12-12T00:44:46.918Z,45.33
2022-12-12T00:47:15.093Z,50.45
2022-12-12T00:49:44.658Z,46.58
2022-12-12T00:52:12.833Z,38.80
2022-12-12T00:54:42.767Z,49.85
2022-12-12T00:57:10.907Z,43.40
2022-12-12T00:59:39.169Z,36.03
2022-12-12T01:02:07.372Z,40.33
2022-12-12T01:04:35.608Z,39.67
2022-12-12T01:07:05.233Z,39.00
2022-12-12T01:09:34.400Z,35.60
2022-12-12T01:12:02.748Z,39.72
2022-12-12T01:14:30.915Z,40.90
2022-12-12T01:16:59.087Z,41.47
2022-12-12T01:19:27.334Z,40.78
2022-12-12T01:21:55.793Z,48.90
2022-12-12T01:24:25.352Z,50.85
2022-12-12T01:26:53.585Z,54.47
2022-12-12T01:29:21.794Z,59.42
2022-12-12T01:31:49.908Z,45.58
2022-12-12T01:34:18.163Z,46.80
2022-12-12T01:36:46.317Z,46.85
2022-12-12T01:39:14.505Z,47.35
2022-12-12T01:41:45.181Z,42.13
2022-12-12T01:44:42.761Z,45.72
2022-12-12T01:47:11.514Z,46.15
2022-12-12T01:49:39.947Z,42.10
2022-12-12T01:52:12.335Z,46.70
2022-12-12T01:54:43.938Z,41.90
2022-12-12T01:57:15.083Z,42.33
2022-12-12T01:59:45.865Z,50.05
2022-12-12T02:02:14.326Z,42.47
2022-12-12T02:04:43.452Z,44.90
2022-12-12T02:07:11.930Z,37.65
2022-12-12T02:09:40.461Z,39.67
2022-12-12T02:12:08.697Z,39.08
2022-12-12T02:14:39.812Z,35.80
2022-12-12T02:17:29.175Z,35.05
2022-12-12T02:20:33.710Z,38.13
2022-12-12T02:23:31.017Z,40.03
2022-12-12T02:26:16.774Z,45.33
2022-12-12T02:29:17.240Z,41.30
2022-12-12T02:31:53.793Z,39.78
2022-12-12T02:34:28.307Z,41.22
2022-12-12T02:37:09.318Z,40.35
2022-12-12T02:39:48.089Z,37.13
2022-12-12T02:42:25.899Z,42.90
2022-12-12T02:44:58.078Z,38.33
2022-12-12T02:47:31.865Z,38.83
2022-12-12T02:50:06.303Z,34.97
2022-12-12T02:52:35.429Z,39.33
2022-12-12T02:55:03.591Z,30.67
2022-12-12T02:57:31.768Z,35.40
2022-12-12T03:00:03.710Z,33.88
2022-12-12T03:03:35.167Z,30.45
2022-12-12T03:06:41.011Z,32.55
2022-12-12T03:09:17.579Z,32.55
2022-12-12T03:11:58.679Z,30.42
2022-12-12T03:14:36.787Z,28.23
2022-12-12T03:17:11.939Z,30.98
2022-12-12T03:19:48.456Z,30.58
2022-12-12T03:22:25.977Z,34.08
2022-12-12T03:25:02.421Z,33.47
2022-12-12T03:27:36.016Z,35.13
2022-12-12T03:30:07.281Z,31.75
2022-12-12T03:35:13.628Z,33.00
2022-12-12T03:37:47.705Z,30.63
2022-12-12T03:40:20.663Z,32.50
2022-12-12T03:42:51.434Z,30.02
2022-12-12T03:45:25.039Z,34.67
2022-12-12T03:48:00.179Z,30.73
2022-12-12T03:50:34.625Z,29.83
2022-12-12T03:53:10.336Z,30.73
2022-12-12T03:55:44.327Z,28.55
2022-12-12T03:58:18.439Z,27.77
2022-12-12T04:00:50.067Z,32.33
2022-12-12T04:03:30.290Z,30.95
2022-12-12T04:06:23.082Z,29.77
2022-12-12T04:09:09.918Z,25.90
2022-12-12T04:12:00.752Z,26.42
2022-12-12T04:14:43.514Z,26.33
2022-12-12T04:17:16.703Z,25.23
2022-12-12T04:20:13.181Z,24.15
2022-12-12T04:23:05.732Z,29.52
2022-12-12T04:25:59.879Z,31.92
2022-12-12T04:28:30.385Z,33.03
2022-12-12T04:31:03.237Z,30.10
2022-12-12T04:33:38.558Z,29.85
2022-12-12T04:36:13.170Z,29.67
2022-12-12T04:38:44.167Z,32.15
2022-12-12T04:41:14.606Z,39.13
2022-12-12T04:43:47.838Z,34.50
2022-12-12T04:46:19.469Z,34.35
2022-12-12T04:48:53.748Z,31.77
2022-12-12T04:51:27.932Z,32.33
2022-12-12T04:54:01.494Z,29.77
2022-12-12T04:56:32.002Z,26.90
2022-12-12T04:59:00.330Z,29.73
2022-12-12T05:01:36.824Z,30.55
2022-12-12T05:04:09.096Z,32.97
2022-12-12T05:06:44.552Z,47.72
2022-12-12T05:09:17.649Z,37.75
2022-12-12T05:11:45.858Z,36.70
2022-12-12T05:14:17.070Z,48.58
2022-12-12T05:16:48.703Z,34.03
2022-12-12T05:19:16.879Z,29.90
2022-12-12T05:21:45.237Z,26.25
2022-12-12T05:24:14.838Z,42.22
2022-12-12T05:26:42.908Z,35.83
2022-12-12T05:29:11.084Z,40.92
2022-12-12T05:31:39.160Z,32.47
2022-12-12T05:34:07.232Z,31.00
2022-12-12T05:36:35.428Z,26.17
2022-12-12T05:39:03.650Z,28.17
2022-12-12T05:41:33.353Z,33.20
2022-12-12T05:44:01.593Z,27.90
2022-12-12T05:46:29.896Z,35.35
2022-12-12T05:48:58.047Z,40.47
2022-12-12T05:51:26.186Z,40.95
2022-12-12T05:53:54.413Z,26.27
2022-12-12T05:56:22.483Z,20.70
2022-12-12T05:58:52.088Z,24.95
2022-12-12T06:01:20.162Z,30.00
2022-12-12T06:03:48.452Z,31.70
2022-12-12T06:06:16.589Z,23.88
2022-12-12T06:08:44.812Z,24.73
2022-12-12T06:11:13.836Z,20.67
2022-12-12T06:13:42.054Z,23.95
2022-12-12T06:16:14.421Z,15.75
2022-12-12T06:18:42.651Z,31.55
2022-12-12T06:21:14.048Z,21.42
2022-12-12T06:23:43.687Z,24.92
2022-12-12T06:26:13.846Z,28.55
2022-12-12T06:28:42.339Z,31.52
2022-12-12T06:31:13.290Z,23.13
2022-12-12T06:33:42.779Z,43.60
2022-12-12T06:36:16.813Z,36.47
2022-12-12T06:38:45.061Z,24.48
2022-12-12T06:41:15.787Z,23.75
2022-12-12T06:43:43.880Z,45.03
2022-12-12T06:46:19.601Z,27.55
2022-12-12T06:48:48.142Z,31.10
2022-12-12T06:51:17.912Z,25.90
2022-12-12T06:53:46.307Z,30.90
2022-12-12T06:56:16.255Z,28.55
2022-12-12T06:58:44.689Z,27.33
2022-12-12T07:01:15.452Z,24.98
2022-12-12T07:03:43.801Z,26.33
2022-12-12T07:06:12.041Z,32.70
2022-12-12T07:08:42.026Z,35.90
2022-12-12T07:11:13.463Z,41.05
2022-12-12T07:13:41.618Z,23.23
2022-12-12T07:16:10.468Z,17.48
2022-12-12T07:18:40.528Z,19.63
2022-12-12T07:21:13.082Z,18.20
2022-12-12T07:23:41.338Z,18.38
2022-12-12T07:26:13.376Z,18.67
2022-12-12T07:28:41.821Z,17.88
2022-12-12T07:31:11.843Z,19.25
2022-12-12T07:33:44.519Z,23.02
2022-12-12T07:36:13.730Z,25.13
2022-12-12T07:38:42.422Z,20.40
2022-12-12T07:41:16.698Z,28.17
2022-12-12T07:43:46.372Z,24.02
2022-12-12T07:46:17.279Z,26.27
2022-12-12T07:48:47.663Z,28.20
2022-12-12T07:51:16.557Z,60.50
2022-12-12T07:53:44.763Z,28.02
2022-12-12T07:56:15.554Z,29.25
2022-12-12T07:58:43.943Z,26.48
2022-12-12T08:01:14.880Z,31.98
2022-12-12T08:06:14.372Z,35.67
2022-12-12T08:08:48.200Z,55.67
2022-12-12T08:11:18.685Z,48.85
2022-12-12T08:13:47.510Z,38.42
2022-12-12T08:16:18.425Z,41.25
2022-12-12T08:18:47.295Z,50.10
2022-12-12T08:21:25.075Z,69.00
2022-12-12T08:23:57.058Z,88.88
2022-12-12T08:26:26.077Z,91.70
2022-12-12T08:28:54.368Z,48.80
2022-12-12T08:31:23.441Z,136.43
2022-12-12T08:33:51.848Z,62.70
2022-12-12T08:36:23.310Z,49.90
2022-12-12T08:38:52.209Z,52.00
2022-12-12T08:41:21.192Z,80.05
2022-12-12T08:43:50.292Z,66.28
2022-12-12T08:46:19.907Z,136.75
2022-12-12T08:48:48.669Z,113.78
2022-12-12T08:51:18.511Z,35.90
2022-12-12T08:53:49.126Z,61.45
2022-12-12T08:56:18.312Z,45.83
2022-12-12T08:58:46.874Z,44.38
2022-12-12T09:01:16.767Z,56.70
2022-12-12T09:03:44.958Z,72.43
2022-12-12T09:06:14.436Z,85.75
2022-12-12T09:08:43.599Z,63.63
2022-12-12T09:11:14.021Z,57.40
2022-12-12T09:13:42.419Z,44.23
2022-12-12T09:16:11.404Z,42.97
2022-12-12T09:18:46.353Z,48.25
2022-12-12T09:21:17.086Z,56.60
2022-12-12T09:23:46.292Z,80.78
2022-12-12T09:26:15.884Z,31.83
2022-12-12T09:28:43.939Z,53.28
2022-12-12T09:31:14.050Z,107.53
2022-12-12T09:33:43.081Z,55.67
2022-12-12T09:36:12.225Z,53.38
2022-12-12T09:38:40.949Z,45.80
2022-12-12T09:41:16.698Z,62.65
2022-12-12T09:43:52.817Z,42.78
2022-12-12T09:46:33.359Z,51.28
2022-12-12T09:49:23.810Z,48.47
2022-12-12T09:51:53.446Z,56.75
2022-12-12T09:54:23.901Z,54.08
2022-12-12T09:57:12.165Z,54.30
2022-12-12T09:59:45.587Z,92.10
2022-12-12T10:02:29.707Z,87.05
2022-12-12T10:05:03.093Z,62.13
2022-12-12T10:07:40.196Z,66.72
2022-12-12T10:10:21.906Z,36.03
2022-12-12T10:12:53.923Z,35.53
2022-12-12T10:15:30.884Z,75.47
2022-12-12T10:18:01.781Z,63.65
2022-12-12T10:20:32.263Z,36.00
2022-12-12T10:23:03.758Z,42.17
2022-12-12T10:25:42.776Z,42.45
2022-12-12T10:28:15.521Z,45.05
2022-12-12T10:31:10.722Z,38.13
2022-12-12T10:33:52.500Z,43.10
2022-12-12T10:36:29.823Z,59.03
2022-12-12T10:39:14.294Z,46.28
2022-12-12T10:41:48.351Z,59.90
2022-12-12T10:44:32.491Z,49.17
2022-12-12T10:47:04.508Z,55.17
2022-12-12T10:49:33.626Z,46.10
2022-12-12T10:52:04.964Z,96.35
2022-12-12T10:57:11.097Z,48.45
2022-12-12T10:59:45.782Z,83.85
2022-12-12T11:02:38.696Z,65.65
2022-12-12T11:05:18.090Z,54.63
2022-12-12T11:07:49.694Z,65.50
2022-12-12T11:10:32.141Z,79.88
2022-12-12T11:13:04.983Z,55.75
2022-12-12T11:15:42.414Z,81.20
2022-12-12T11:18:16.557Z,42.33
2022-12-12T11:20:47.927Z,56.78
2022-12-12T11:25:47.445Z,50.83
2022-12-12T11:28:23.355Z,41.40
2022-12-12T11:30:59.005Z,52.08
2022-12-12T11:33:33.736Z,53.20
2022-12-12T11:36:06.564Z,51.28
2022-12-12T11:38:41.214Z,49.58
2022-12-12T11:41:11.219Z,58.03
2022-12-12T11:43:53.528Z,54.92
2022-12-12T11:46:26.407Z,53.30
2022-12-12T11:49:03.054Z,51.30
2022-12-12T11:51:38.255Z,54.53
2022-12-12T11:54:13.196Z,44.78
2022-12-12T11:56:54.217Z,50.75
2022-12-12T11:59:33.674Z,51.33
2022-12-12T12:02:21.915Z,69.60
2022-12-12T12:04:56.668Z,49.20
2022-12-12T12:07:46.143Z,49.92
2022-12-12T12:10:24.244Z,39.00
2022-12-12T12:13:01.765Z,65.20
2022-12-12T12:15:37.210Z,108.43
2022-12-12T12:18:32.056Z,57.38
2022-12-12T12:21:27.754Z,49.70
2022-12-12T12:24:07.405Z,39.40
2022-12-12T12:26:41.289Z,48.08
2022-12-12T12:29:31.036Z,50.33
2022-12-12T12:32:09.724Z,62.72
2022-12-12T12:34:50.029Z,151.68
2022-12-12T12:37:33.034Z,99.97
2022-12-12T12:40:15.668Z,61.78
2022-12-12T12:42:59.819Z,115.78
2022-12-12T12:45:37.735Z,73.78
2022-12-12T12:48:16.828Z,81.13
2022-12-12T12:50:52.103Z,144.90
2022-12-12T12:53:30.293Z,72.53
2022-12-12T12:56:04.178Z,74.65
2022-12-12T12:58:39.858Z,76.57
2022-12-12T13:01:12.919Z,74.55
2022-12-12T13:03:47.392Z,62.13
2022-12-12T13:06:22.531Z,120.47
2022-12-12T13:08:59.020Z,111.28
2022-12-12T13:11:38.753Z,126.57
2022-12-12T13:14:14.553Z,82.80
2022-12-12T13:16:44.423Z,88.28
2022-12-12T13:19:17.147Z,82.68
2022-12-12T13:21:54.029Z,110.53
2022-12-12T13:24:27.271Z,82.75
2022-12-12T13:27:02.788Z,82.55
2022-12-12T13:29:40.713Z,70.78
2022-12-12T13:32:39.848Z,75.25
2022-12-12T13:35:12.996Z,85.68
2022-12-12T13:37:49.619Z,90.45
2022-12-12T13:40:28.354Z,85.75
2022-12-12T13:43:01.647Z,87.20
2022-12-12T13:45:42.974Z,72.53
2022-12-12T13:48:41.435Z,74.35
2022-12-12T13:54:51.296Z,60.70
2022-12-12T13:57:26.982Z,56.78
2022-12-12T14:00:19.853Z,66.97
2022-12-12T14:03:01.484Z,131.10
2022-12-12T14:05:33.104Z,98.50
2022-12-12T14:08:20.529Z,84.60
2022-12-12T14:10:56.632Z,92.13
2022-12-12T14:13:50.792Z,64.40
2022-12-12T14:16:23.142Z,95.63
2022-12-12T14:19:04.275Z,95.25
2022-12-12T14:21:45.200Z,156.52
2022-12-12T14:24:48.161Z,77.70
2022-12-12T14:27:16.813Z,111.00
2022-12-12T14:29:47.234Z,91.95
2022-12-12T14:32:41.895Z,110.43
2022-12-12T14:35:29.254Z,178.95
2022-12-12T14:38:03.754Z,108.93
2022-12-12T14:40:34.991Z,125.72
2022-12-12T14:43:19.208Z,79.97
2022-12-12T14:45:57.350Z,82.93
2022-12-12T14:48:29.927Z,116.65
2022-12-12T14:51:02.844Z,184.63
2022-12-12T14:53:35.290Z,101.22
2022-12-12T14:56:08.711Z,136.75
2022-12-12T14:58:41.316Z,133.70
2022-12-12T15:01:11.374Z,116.97
2022-12-12T15:03:44.515Z,78.50
2022-12-12T15:06:30.564Z,115.13
2022-12-12T15:09:08.429Z,106.85
2022-12-12T15:11:37.158Z,283.98
2022-12-12T15:14:05.787Z,228.98
2022-12-12T15:16:47.669Z,95.65
2022-12-12T15:19:20.567Z,88.43
2022-12-12T15:21:49.438Z,118.53
2022-12-12T15:24:23.360Z,70.47
2022-12-12T15:26:53.380Z,209.60
2022-12-12T15:29:24.932Z,137.30
2022-12-12T15:32:00.506Z,163.32
2022-12-12T15:34:43.454Z,127.57
2022-12-12T15:37:23.258Z,115.85
2022-12-12T15:40:17.631Z,92.28
2022-12-12T15:42:48.641Z,60.17
2022-12-12T15:45:20.971Z,166.55
2022-12-12T15:47:53.264Z,110.07
2022-12-12T15:50:23.619Z,103.50
2022-12-12T15:53:02.593Z,120.43
2022-12-12T15:55:31.611Z,176.35
2022-12-12T15:58:00.124Z,68.85
2022-12-12T16:00:35.526Z,126.00
2022-12-12T16:03:20.294Z,103.60
2022-12-12T16:06:03.213Z,132.63
2022-12-12T16:08:40.507Z,107.10
2022-12-12T16:11:32.883Z,102.07
2022-12-12T16:14:01.438Z,82.65
2022-12-12T16:16:53.713Z,115.30
2022-12-12T16:19:46.575Z,88.65
2022-12-12T16:22:21.562Z,195.43
2022-12-12T16:24:51.802Z,307.92
2022-12-12T16:27:20.380Z,206.30
2022-12-12T16:29:49.119Z,209.93
2022-12-12T16:32:19.359Z,241.13
2022-12-12T16:34:49.037Z,409.58
2022-12-12T16:37:19.437Z,231.88
2022-12-12T16:39:47.650Z,336.40
2022-12-12T16:42:17.048Z,193.02
2022-12-12T16:44:45.705Z,199.65
2022-12-12T16:47:17.243Z,316.80
2022-12-12T16:49:45.582Z,187.80
2022-12-12T16:52:15.851Z,157.18
2022-12-12T16:54:52.585Z,223.35
2022-12-12T16:57:22.015Z,199.90
2022-12-12T16:59:50.397Z,194.77
2022-12-12T17:02:21.476Z,240.23
2022-12-12T17:04:50.188Z,140.82
2022-12-12T17:07:20.245Z,290.92
2022-12-12T17:09:48.418Z,98.50
2022-12-12T17:12:16.537Z,240.45
2022-12-12T17:14:44.778Z,620.13
2022-12-12T17:17:13.339Z,190.30
2022-12-12T17:19:41.412Z,164.80
2022-12-12T17:22:09.479Z,127.50
2022-12-12T17:24:39.044Z,139.73
2022-12-12T17:27:07.135Z,260.35
2022-12-12T17:29:35.304Z,334.77
2022-12-12T17:32:06.477Z,403.02
2022-12-12T17:34:34.728Z,115.55
2022-12-12T17:37:02.965Z,100.97
2022-12-12T17:39:31.030Z,191.98
2022-12-12T17:42:00.561Z,281.48
2022-12-12T17:44:28.799Z,292.95
2022-12-12T17:46:56.838Z,190.43
2022-12-12T17:49:25.030Z,453.77
2022-12-12T17:51:53.297Z,469.17
2022-12-12T17:54:21.873Z,284.75
2022-12-12T17:56:50.900Z,292.55
2022-12-12T17:59:20.892Z,284.48
2022-12-12T18:01:56.908Z,115.22
2022-12-12T18:04:28.539Z,204.98
2022-12-12T18:06:56.923Z,193.63
2022-12-12T18:09:26.112Z,211.32
2022-12-12T18:11:54.259Z,235.82
2022-12-12T18:14:23.833Z,230.40
2022-12-12T18:16:53.316Z,215.75
2022-12-12T18:19:23.233Z,209.40
2022-12-12T18:22:01.006Z,507.73
2022-12-12T18:24:30.544Z,223.93
2022-12-12T18:27:00.135Z,237.93
2022-12-12T18:29:29.702Z,258.27
2022-12-12T18:31:57.865Z,316.45
2022-12-12T18:34:26.450Z,170.48
2022-12-12T18:36:54.603Z,253.45
2022-12-12T18:39:22.864Z,244.80
2022-12-12T18:41:52.187Z,196.15
2022-12-12T18:44:20.340Z,338.27
2022-12-12T18:46:50.732Z,240.73
2022-12-12T18:49:19.241Z,171.03
2022-12-12T18:51:48.036Z,264.02
2022-12-12T18:54:17.162Z,167.88
2022-12-12T18:56:46.586Z,169.48
2022-12-12T18:59:15.073Z,139.75
2022-12-12T19:01:43.753Z,109.15
2022-12-12T19:04:20.847Z,121.90
2022-12-12T19:06:51.243Z,175.15
2022-12-12T19:09:20.534Z,111.25
2022-12-12T19:11:49.171Z,180.70
2022-12-12T19:14:18.329Z,125.07
2022-12-12T19:16:46.989Z,103.65
2022-12-12T19:19:16.684Z,82.00
2022-12-12T19:21:46.410Z,94.90
2022-12-12T19:24:14.568Z,89.18
2022-12-12T19:26:44.470Z,96.55
2022-12-12T19:29:14.264Z,96.57
2022-12-12T19:31:42.864Z,66.20
2022-12-12T19:34:13.315Z,74.40
2022-12-12T19:36:43.680Z,46.43
2022-12-12T19:39:13.806Z,77.57
2022-12-12T19:41:42.606Z,76.18
2022-12-12T19:44:13.157Z,75.90
2022-12-12T19:46:43.226Z,46.38
2022-12-12T19:49:13.729Z,60.92
2022-12-12T19:51:45.026Z,58.20
2022-12-12T19:56:42.636Z,76.50
2022-12-12T19:59:13.380Z,53.78
2022-12-12T20:01:42.143Z,60.30
2022-12-12T20:04:15.876Z,84.53
2022-12-12T20:06:46.533Z,63.67
2022-12-12T20:09:17.709Z,41.90
2022-12-12T20:11:46.057Z,85.20
2022-12-12T20:14:16.459Z,94.10
2022-12-12T20:16:45.178Z,48.37
2022-12-12T20:19:14.307Z,60.17
2022-12-12T20:22:03.318Z,62.90
2022-12-12T20:24:33.027Z,67.88
2022-12-12T20:27:03.244Z,57.83
2022-12-12T20:29:31.729Z,59.35
2022-12-12T20:32:01.387Z,61.70
2022-12-12T20:34:30.259Z,54.75
2022-12-12T20:36:59.766Z,67.88
2022-12-12T20:39:28.173Z,71.15
2022-12-12T20:41:57.060Z,73.65
2022-12-12T20:44:25.861Z,89.32
2022-12-12T20:46:54.490Z,74.85
2022-12-12T20:49:24.799Z,80.65
2022-12-12T20:51:56.460Z,86.53
2022-12-12T20:54:28.893Z,99.28
2022-12-12T20:56:57.699Z,153.27
2022-12-12T20:59:26.073Z,198.02
2022-12-12T21:01:54.598Z,169.98
2022-12-12T21:04:24.353Z,130.40
2022-12-12T21:06:52.932Z,140.05
2022-12-12T21:09:25.803Z,106.95
2022-12-12T21:11:59.055Z,103.25
2022-12-12T21:14:30.889Z,103.10
2022-12-12T21:16:59.129Z,91.05
2022-12-12T21:19:27.626Z,83.78
2022-12-12T21:21:56.232Z,81.82
2022-12-12T21:24:24.608Z,82.95
2022-12-12T21:26:52.862Z,76.88
2022-12-12T21:29:22.364Z,79.72
2022-12-12T21:31:52.339Z,86.28
2022-12-12T21:34:22.318Z,79.95
2022-12-12T21:36:53.857Z,72.40
2022-12-12T21:39:23.235Z,69.97
2022-12-12T21:41:51.801Z,69.85
2022-12-12T21:44:21.005Z,84.40
2022-12-12T21:46:50.659Z,82.10
2022-12-12T21:49:27.773Z,75.60
2022-12-12T21:51:58.048Z,75.15
2022-12-12T21:54:26.861Z,70.88
2022-12-12T21:56:55.615Z,74.22
2022-12-12T21:59:24.652Z,94.32
2022-12-12T22:01:55.800Z,128.70
2022-12-12T22:06:51.898Z,90.10
2022-12-12T22:09:20.155Z,80.43
2022-12-12T22:12:03.621Z,75.75
2022-12-12T22:14:33.896Z,83.15
2022-12-12T22:17:04.191Z,93.53
2022-12-12T22:19:32.644Z,110.53
2022-12-12T22:22:00.929Z,123.28
2022-12-12T22:24:29.201Z,127.72
2022-12-12T22:26:57.282Z,134.50
2022-12-12T22:29:25.493Z,140.52
2022-12-12T22:31:53.817Z,146.55
2022-12-12T22:34:24.737Z,166.05
2022-12-12T22:36:53.673Z,139.52
2022-12-12T22:39:24.113Z,129.45
2022-12-12T22:41:52.424Z,106.00
2022-12-12T22:44:22.973Z,141.23
2022-12-12T22:46:53.132Z,142.13
2022-12-12T22:49:26.710Z,143.40
2022-12-12T22:51:55.786Z,151.07
2022-12-12T22:54:24.128Z,144.50
2022-12-12T22:56:52.343Z,148.43
2022-12-12T22:59:20.549Z,159.98
2022-12-12T23:01:48.723Z,139.63
2022-12-12T23:04:16.959Z,154.75
2022-12-12T23:06:46.787Z,145.30
2022-12-12T23:09:17.414Z,132.88
2022-12-12T23:11:46.367Z,147.65
2022-12-12T23:14:16.551Z,141.15
2022-12-12T23:16:45.204Z,125.22
2022-12-12T23:19:16.212Z,125.70
2022-12-12T23:21:44.570Z,123.43
2022-12-12T23:24:15.231Z,102.10
2022-12-12T23:26:44.068Z,118.95
2022-12-12T23:29:16.495Z,111.32
2022-12-12T23:31:44.931Z,99.15
2022-12-12T23:34:18.248Z,91.55
2022-12-12T23:36:46.423Z,107.22
2022-12-12T23:39:16.134Z,91.50
2022-12-12T23:41:44.508Z,89.68
2022-12-12T23:44:14.498Z,92.50
2022-12-12T23:46:43.295Z,94.57
2022-12-12T23:49:16.671Z,94.32
2022-12-12T23:51:46.345Z,104.97
2022-12-12T23:54:18.065Z,92.95
2022-12-12T23:56:47.101Z,90.35
2022-12-12T23:59:18.206Z,92.00
